createdAt,value
2023-04-14T00:02:01.073Z,86.52
2023-04-14T00:07:23.684Z,86.42
2023-04-14T00:12:16.102Z,86.63
2023-04-14T00:17:16.121Z,86.79
2023-04-14T00:22:15.953Z,87.00
2023-04-14T00:27:15.892Z,87.46
2023-04-14T00:32:15.803Z,86.98
2023-04-14T00:37:15.747Z,87.64
2023-04-14T00:42:15.675Z,88.51
2023-04-14T00:47:15.625Z,88.92
2023-04-14T00:52:15.555Z,88.88
2023-04-14T00:57:15.498Z,88.46
2023-04-14T01:02:15.482Z,89.13
2023-04-14T01:07:15.386Z,88.92
2023-04-14T01:12:15.297Z,89.44
2023-04-14T01:17:15.608Z,89.69
2023-04-14T01:22:15.166Z,90.87
2023-04-14T01:27:15.120Z,90.56
2023-04-14T01:32:15.008Z,91.70
2023-04-14T01:37:15.037Z,91.28
2023-04-14T01:42:14.952Z,91.91
2023-04-14T01:47:14.858Z,90.83
2023-04-14T01:52:14.777Z,90.52
2023-04-14T01:57:14.743Z,90.83
2023-04-14T02:02:14.728Z,90.41
2023-04-14T02:07:14.594Z,90.25
2023-04-14T02:12:14.533Z,90.77
2023-04-14T02:17:14.477Z,92.22
2023-04-14T02:22:14.398Z,91.28
2023-04-14T02:27:14.356Z,90.70
2023-04-14T02:32:14.254Z,92.26
2023-04-14T02:37:14.212Z,91.33
2023-04-14T02:42:14.139Z,91.58
2023-04-14T02:47:14.116Z,92.35
2023-04-14T02:52:14.034Z,92.86
2023-04-14T02:57:13.958Z,92.35
2023-04-14T03:02:14.004Z,92.76
2023-04-14T03:07:13.837Z,92.66
2023-04-14T03:12:13.730Z,93.28
2023-04-14T03:17:13.702Z,92.97
2023-04-14T03:22:13.615Z,92.86
2023-04-14T03:27:13.587Z,92.49
2023-04-14T03:32:13.495Z,92.63
2023-04-14T03:37:13.436Z,94.09
2023-04-14T03:42:13.371Z,94.82
2023-04-14T03:47:13.297Z,94.45
2023-04-14T03:52:13.271Z,94.34
2023-04-14T03:57:13.195Z,94.76
2023-04-14T04:02:13.127Z,95.17
2023-04-14T04:07:13.048Z,95.90
2023-04-14T04:12:12.979Z,94.55
2023-04-14T04:17:24.028Z,94.59
2023-04-14T04:22:16.359Z,95.42
2023-04-14T04:27:27.107Z,95.32
2023-04-14T04:32:17.328Z,96.04
2023-04-14T04:37:16.137Z,95.63
2023-04-14T04:42:16.084Z,96.04
2023-04-14T04:47:16.043Z,95.11
2023-04-14T04:52:15.991Z,94.90
2023-04-14T04:57:15.902Z,95.01
2023-04-14T05:02:15.848Z,95.73
2023-04-14T05:07:15.775Z,95.94
2023-04-14T05:12:15.729Z,95.07
2023-04-14T05:17:15.629Z,94.76
2023-04-14T05:22:16.257Z,94.76
2023-04-14T05:27:15.490Z,94.65
2023-04-14T05:32:15.450Z,94.45
2023-04-14T05:37:15.400Z,94.76
2023-04-14T05:42:15.360Z,95.13
2023-04-14T05:47:15.221Z,94.88
2023-04-14T05:52:15.189Z,94.46
2023-04-14T05:57:15.121Z,94.27
2023-04-14T06:02:15.100Z,93.81
2023-04-14T06:07:15.003Z,92.74
2023-04-14T06:12:14.947Z,92.32
2023-04-14T06:17:14.850Z,92.32
2023-04-14T06:22:14.816Z,92.18
2023-04-14T06:27:14.721Z,92.07
2023-04-14T06:32:14.679Z,91.51
2023-04-14T06:37:14.598Z,89.62
2023-04-14T06:42:14.615Z,81.53
2023-04-14T06:47:14.460Z,75.83
2023-04-14T06:52:14.476Z,70.03
2023-04-14T06:57:14.350Z,66.93
2023-04-14T07:02:14.353Z,66.52
2023-04-14T07:07:14.175Z,63.95
2023-04-14T07:12:14.148Z,61.59
2023-04-14T07:17:14.077Z,60.85
2023-04-14T07:22:14.049Z,58.60
2023-04-14T07:27:14.276Z,58.42
2023-04-14T07:32:13.909Z,55.43
2023-04-14T07:37:13.817Z,54.76
2023-04-14T07:42:13.783Z,54.31
2023-04-14T07:47:13.679Z,52.94
2023-04-14T07:52:14.336Z,51.05
2023-04-14T07:57:13.617Z,50.12
2023-04-14T08:02:13.545Z,49.04
2023-04-14T08:07:13.439Z,46.53
2023-04-14T08:12:13.395Z,46.96
2023-04-14T08:17:13.290Z,48.54
2023-04-14T08:22:13.232Z,46.54
2023-04-14T08:27:13.174Z,44.00
2023-04-14T08:32:13.216Z,45.45
2023-04-14T08:37:13.029Z,43.80
2023-04-14T08:42:12.973Z,42.03
2023-04-14T08:47:12.895Z,41.97
2023-04-14T08:52:12.865Z,45.66
2023-04-14T08:57:12.777Z,43.16
2023-04-14T09:02:12.844Z,40.45
2023-04-14T09:07:12.642Z,41.75
2023-04-14T09:12:12.597Z,40.47
2023-04-14T09:17:12.634Z,38.52
2023-04-14T09:22:12.456Z,36.99
2023-04-14T09:27:12.374Z,39.52
2023-04-14T09:32:12.346Z,38.20
2023-04-14T09:37:12.251Z,37.85
2023-04-14T09:42:12.216Z,35.80
2023-04-14T09:47:12.134Z,35.64
2023-04-14T09:52:12.049Z,37.42
2023-04-14T09:57:11.977Z,38.23
2023-04-14T10:02:12.103Z,33.07
2023-04-14T10:07:11.828Z,33.27
2023-04-14T10:12:11.792Z,32.77
2023-04-14T10:17:11.695Z,32.67
2023-04-14T10:22:11.686Z,32.86
2023-04-14T10:27:11.584Z,34.75
2023-04-14T10:32:11.520Z,32.92
2023-04-14T10:37:11.441Z,33.86
2023-04-14T10:42:11.392Z,33.86
2023-04-14T10:47:11.425Z,33.40
2023-04-14T10:52:11.254Z,31.86
2023-04-14T10:57:11.176Z,36.22
2023-04-14T11:02:11.237Z,30.42
2023-04-14T11:07:11.047Z,30.88
2023-04-14T11:12:11.004Z,34.06
2023-04-14T11:17:10.948Z,31.54
2023-04-14T11:22:10.865Z,31.67
2023-04-14T11:27:10.842Z,31.72
2023-04-14T11:32:10.780Z,34.03
2023-04-14T11:37:10.638Z,35.47
2023-04-14T11:42:10.606Z,31.18
2023-04-14T11:47:10.496Z,38.20
2023-04-14T11:52:10.478Z,33.18
2023-04-14T11:57:10.445Z,36.01
2023-04-14T12:02:10.461Z,33.01
2023-04-14T12:07:10.268Z,33.68
2023-04-14T12:12:10.280Z,36.68
2023-04-14T12:17:10.113Z,31.38
2023-04-14T12:22:10.079Z,32.29
2023-04-14T12:27:10.028Z,30.46
2023-04-14T12:32:09.956Z,29.93
2023-04-14T12:37:09.870Z,32.14
2023-04-14T12:42:09.808Z,33.39
2023-04-14T12:47:09.786Z,34.69
2023-04-14T12:52:09.659Z,35.21
2023-04-14T12:57:09.593Z,35.35
2023-04-14T13:02:09.595Z,35.35
2023-04-14T13:07:09.528Z,34.86
2023-04-14T13:12:09.442Z,33.97
2023-04-14T13:17:09.343Z,34.63
2023-04-14T13:22:09.303Z,33.91
2023-04-14T13:27:09.223Z,34.91
2023-04-14T13:32:09.220Z,36.84
2023-04-14T13:37:09.042Z,34.04
2023-04-14T13:42:08.994Z,36.37
2023-04-14T13:47:08.931Z,35.73
2023-04-14T13:52:08.907Z,36.50
2023-04-14T13:57:08.797Z,35.55
2023-04-14T14:02:08.834Z,36.77
2023-04-14T14:07:08.677Z,38.12
2023-04-14T14:12:08.617Z,36.37
2023-04-14T14:17:08.547Z,38.18
2023-04-14T14:22:08.483Z,37.68
2023-04-14T14:27:08.395Z,35.78
2023-04-14T14:32:08.384Z,38.28
2023-04-14T14:37:08.282Z,36.35
2023-04-14T14:42:08.206Z,36.98
2023-04-14T14:47:08.174Z,40.01
2023-04-14T14:52:08.085Z,36.89
2023-04-14T14:57:08.024Z,36.39
2023-04-14T15:02:07.967Z,38.28
2023-04-14T15:07:07.807Z,39.92
2023-04-14T15:12:07.812Z,40.76
2023-04-14T15:17:07.710Z,39.87
2023-04-14T15:22:07.691Z,39.39
2023-04-14T15:27:07.621Z,39.18
2023-04-14T15:32:07.593Z,38.15
2023-04-14T15:37:07.493Z,40.59
2023-04-14T15:42:07.430Z,39.73
2023-04-14T15:47:07.352Z,40.55
2023-04-14T15:52:07.281Z,40.67
2023-04-14T15:57:07.199Z,40.89
2023-04-14T16:02:07.176Z,41.32
2023-04-14T16:07:07.084Z,41.42
2023-04-14T16:12:07.034Z,41.32
2023-04-14T16:17:06.977Z,42.33
2023-04-14T16:22:07.716Z,41.20
2023-04-14T16:27:06.870Z,42.41
2023-04-14T16:32:06.891Z,39.07
2023-04-14T16:37:07.518Z,41.40
2023-04-14T16:42:06.658Z,38.87
2023-04-14T16:47:06.566Z,37.35
2023-04-14T16:52:06.655Z,39.28
2023-04-14T16:57:06.436Z,38.08
2023-04-14T17:02:06.430Z,39.50
2023-04-14T17:07:06.270Z,38.48
2023-04-14T17:12:06.215Z,39.21
2023-04-14T17:17:06.155Z,40.43
2023-04-14T17:22:06.093Z,40.55
2023-04-14T17:27:06.038Z,40.95
2023-04-14T17:32:05.990Z,40.87
2023-04-14T17:37:05.900Z,41.38
2023-04-14T17:42:05.805Z,42.19
2023-04-14T17:47:05.754Z,41.40
2023-04-14T17:52:05.689Z,42.63
2023-04-14T17:57:05.641Z,42.96
2023-04-14T18:02:05.628Z,42.57
2023-04-14T18:07:05.507Z,43.38
2023-04-14T18:12:05.411Z,45.01
2023-04-14T18:17:05.412Z,47.27
2023-04-14T18:22:05.280Z,54.61
2023-04-14T18:32:05.129Z,57.26
2023-04-14T18:37:05.079Z,55.97
2023-04-14T18:42:05.064Z,57.42
2023-04-14T18:47:04.963Z,56.32
2023-04-14T18:52:04.902Z,56.96
2023-04-14T18:57:04.862Z,55.76
2023-04-14T19:02:04.853Z,56.17
2023-04-14T19:07:04.715Z,60.60
2023-04-14T19:12:04.648Z,60.83
2023-04-14T19:17:04.585Z,60.03
2023-04-14T19:22:04.490Z,60.35
2023-04-14T19:27:04.443Z,59.22
2023-04-14T19:32:04.565Z,59.22
2023-04-14T19:37:04.305Z,59.63
2023-04-14T19:42:04.197Z,59.22
2023-04-14T19:47:04.278Z,59.63
2023-04-14T19:52:04.096Z,60.14
2023-04-14T19:57:04.021Z,59.73
2023-04-14T20:02:04.304Z,60.75
2023-04-14T20:07:03.947Z,60.14
2023-04-14T20:12:03.837Z,59.53
2023-04-14T20:17:03.825Z,60.88
2023-04-14T20:22:03.725Z,61.73
2023-04-14T20:27:03.638Z,66.16
2023-04-14T20:32:03.542Z,68.59
2023-04-14T20:37:03.496Z,69.98
2023-04-14T20:42:03.435Z,70.53
2023-04-14T20:47:03.426Z,69.40
2023-04-14T20:52:03.339Z,70.42
2023-04-14T20:57:03.241Z,69.32
2023-04-14T21:02:03.417Z,70.97
2023-04-14T21:07:03.084Z,69.98
2023-04-14T21:12:15.479Z,69.36
2023-04-14T21:17:04.380Z,69.32
2023-04-14T21:22:02.930Z,69.02
2023-04-14T21:27:02.817Z,69.32
2023-04-14T21:32:02.831Z,69.12
2023-04-14T21:37:02.686Z,69.26
2023-04-14T21:42:02.645Z,69.15
2023-04-14T21:47:02.569Z,69.80
2023-04-14T21:52:02.497Z,70.52
2023-04-14T21:57:02.417Z,70.52
2023-04-14T22:02:02.448Z,70.73
2023-04-14T22:07:02.292Z,72.72
2023-04-14T22:12:02.244Z,71.00
2023-04-14T22:17:02.309Z,71.82
2023-04-14T22:22:02.149Z,72.96
2023-04-14T22:27:02.025Z,74.43
2023-04-14T22:32:01.975Z,74.67
2023-04-14T22:37:02.015Z,74.91
2023-04-14T22:42:01.843Z,73.98
2023-04-14T22:47:01.780Z,74.33
2023-04-14T22:52:01.779Z,73.60
2023-04-14T22:57:01.641Z,73.60
2023-04-14T23:02:01.714Z,72.88
2023-04-14T23:07:01.540Z,73.74
2023-04-14T23:12:01.457Z,73.57
2023-04-14T23:17:01.374Z,73.33
2023-04-14T23:22:01.301Z,73.47
2023-04-14T23:27:01.231Z,73.47
2023-04-14T23:32:01.308Z,74.81
2023-04-14T23:37:01.099Z,75.53
2023-04-14T23:42:01.039Z,75.43
2023-04-14T23:47:01.082Z,74.91
2023-04-14T23:52:00.914Z,75.43
2023-04-14T23:57:00.861Z,74.19
